Medford, OR (97501)

7:59 PM PDT on March 26, 2017 (GMT -0700)
Southwest Medford (CW2551) | | Change Station

Elev 1472 ft 42.31 °N, 122.90 °W | Updated 11 seconds ago

Rain
Rain
48.0 °F
Feels Like 48 °F
N
0.0
Wind Variable Wind from WSW
Gusts 0.0 mph

Today
High -- | Low -- °F
--% Chance of Precip.
Yesterday
High -- | Low -- °F
Precip. -- in
Pressure 29.94 in
Visibility 8.0 miles
Clouds Mostly Cloudy 4700 ft
Overcast 6000 ft
Windchill 48 °F
Dew Point 43 °F
Humidity 83%
Rainfall 0.07 in
Snow Depth Not available.
7:03 AM 7:31 PM
Waning Crescent, 1% visible
METAR KMFR 270253Z 25006KT 8SM RA BKN047 OVC060 09/06 A2993 RMK AO2 RAB04 SLP139 P0001 60003 T00940061 53023
Pressure 29.94 in
Visibility 8.0 miles
Clouds Mostly Cloudy 4700 ft
Overcast 6000 ft
Windchill 48 °F
Dew Point 43 °F
Humidity 83%
Rainfall 0.07 in
Snow Depth Not available.
7:03 AM 7:31 PM
Waning Crescent, 1% visible
METAR KMFR 270253Z 25006KT 8SM RA BKN047 OVC060 09/06 A2993 RMK AO2 RAB04 SLP139 P0001 60003 T00940061 53023

Get Severe Weather Alerts

Thanks for signing up!

Be on the lookout for a verification email in your inbox.

You'll start receiving the daily forecast at 8 AM.

×

10-Day Weather Forecast

Almanac

Astronomy

Mar. 26, 2017 Rise Set
Actual Time
Civil Twilight
Nautical Twilight
Astronomical Twilight
Moon
Length of Visible Light
Length of Day
Tomorrow will be .
, % of the Moon is Illuminated

Today's Extremes

State Highs State Lows

Community

WunderPhotos

Upload Photos

1,962,540 photos uploaded!

WunderBlog® & News

Nearby

Air Quality

  Air Quality AQ Index Pollutant
Not available.

Snow Depth

Station Depth Elevation

Earthquake Activity

City Distance Mag. Time & Date
Minimum magnitude displayed is 2.5.

Earthquake Activity

City Distance Mag. Time & Date
Minimum magnitude displayed is 2.5.

Coastal Water Temperatures

Place Temperature

Stations

Nearby Weather Stations

Station Location Temp. Windchill Dew Point Humidity Wind Precip. Elev Updated Type
                   

Watches & Warnings

There are currently no watches in effect.